Yangyang International Airport
RKNY : now visible

Airfield :











YOU CAN JOIN US ON...

 
LOGIN :

Register | Disclaimer

   EN    FR    IT 

 









Legend :    VFR   Marginal VFR   IFR   Intensive IFR   Very Intensive IFR
Visi :
Ceiling :
>= 8 km
>= 3000ft
5 to 8 km
1000 to 3000 ft
1500m to 5 km
500 to 1000 ft
800 to 1500m
200 to 500 ft
< 800m
< 200 ft
Symbols :   Thunderstorms  Fog  Heavy snow  Heavy precipitations  Wind > 20 kt






- Airport Elevation : 241 ft
- IATA code : YNY


RKNY - Yangyang International

CURRENT METAR :
  • 280200Z 04006KT 9999 FEW035 BKN070 17/11 Q1009 NOSIG

EXPIRED METARs :
  • 280100Z 03007KT 9999 SCT035 BKN070 17/11 Q1009 NOSIG
  • 280000Z 03006KT 9999 SCT025 BKN035 BKN070 16/12 Q1008 NOSIG
  • 272300Z 03006KT 9999 BKN025 16/12 Q1008 NOSIG

TAF TAF RKNY
Valid from the 28 at 00:00 until the 29 at 06:00 UTC


272300Z 2800/2906 36008KT 9999 BKN030 TX20/2806Z TN14/2820Z TX26/2906Z
BECMG 2801/2803 SCT030
BECMG 2813/2815 20006KT CAVOK
BECMG 2819/2821 26008KT
RKRR FIR / Asia



MET'MAP, your aeronautical weather chart ! - Copyright ORBIFLY December 2007 - Disclaimer

ORBIFLY MET'MAP TEAM :

Programming & Development : Alexandra Zaïnal
Original concept : Baudouin d'Aumeries
Technical & hardware support : Manuel Goepfert
Assistance : Marc-Olivier Méhu




SOURCES & CREDITS :

   NOAA       Earth
Advisory